createdAt,value
2018-04-29T00:00:28.021Z,12.77
2018-04-29T00:02:56.750Z,13.60
2018-04-29T00:08:18.056Z,12.70
2018-04-29T00:11:02.023Z,12.97
2018-04-29T00:13:32.292Z,12.40
2018-04-29T00:16:00.034Z,12.23
2018-04-29T00:23:33.539Z,12.77
2018-04-29T00:26:02.253Z,11.93
2018-04-29T00:28:29.919Z,13.57
2018-04-29T00:30:58.704Z,13.00
2018-04-29T00:33:26.548Z,12.27
2018-04-29T00:35:54.309Z,11.90
2018-04-29T00:38:43.411Z,13.00
2018-04-29T00:41:11.868Z,13.30
2018-04-29T00:43:39.645Z,10.57
2018-04-29T00:46:07.460Z,13.43
2018-04-29T00:48:43.910Z,14.23
2018-04-29T00:51:11.553Z,13.60
2018-04-29T00:53:40.200Z,14.13
2018-04-29T00:56:08.122Z,14.30
2018-04-29T00:58:36.564Z,14.60
2018-04-29T01:01:04.317Z,13.67
2018-04-29T01:03:31.978Z,13.27
2018-04-29T01:06:10.804Z,11.13
2018-04-29T01:08:39.343Z,13.03
2018-04-29T01:11:07.180Z,10.80
2018-04-29T01:13:35.932Z,12.50
2018-04-29T01:16:04.394Z,11.30
2018-04-29T01:21:08.305Z,11.40
2018-04-29T01:23:40.642Z,12.67
2018-04-29T01:26:09.050Z,10.33
2018-04-29T01:28:37.966Z,13.30
2018-04-29T01:31:05.568Z,15.47
2018-04-29T01:33:37.606Z,18.07
2018-04-29T01:36:05.400Z,18.80
2018-04-29T01:38:33.139Z,18.90
2018-04-29T01:41:10.649Z,18.37
2018-04-29T01:43:39.079Z,16.40
2018-04-29T01:46:08.577Z,17.93
2018-04-29T01:48:36.720Z,17.23
2018-04-29T01:51:04.555Z,16.20
2018-04-29T01:53:33.620Z,14.00
2018-04-29T01:56:04.090Z,15.90
2018-04-29T01:58:31.771Z,18.07
2018-04-29T02:00:59.548Z,19.10
2018-04-29T02:03:27.395Z,21.20
2018-04-29T02:05:55.577Z,21.30
2018-04-29T02:08:23.305Z,20.07
2018-04-29T02:10:50.946Z,19.07
2018-04-29T02:13:18.804Z,16.00
2018-04-29T02:15:47.502Z,14.57
2018-04-29T02:18:15.137Z,13.47
2018-04-29T02:20:43.621Z,15.33
2018-04-29T02:29:16.839Z,15.10
2018-04-29T02:34:16.113Z,15.20
2018-04-29T02:36:44.846Z,15.03
2018-04-29T02:39:12.712Z,16.10
2018-04-29T02:41:40.436Z,15.50
2018-04-29T02:44:11.954Z,19.67
2018-04-29T02:46:41.164Z,18.43
2018-04-29T02:49:08.946Z,16.80
2018-04-29T02:51:36.672Z,18.97
2018-04-29T02:54:04.271Z,17.30
2018-04-29T02:56:31.893Z,15.97
2018-04-29T02:59:00.701Z,17.20
2018-04-29T03:04:10.972Z,17.00
2018-04-29T03:10:25.928Z,15.60
2018-04-29T03:24:43.595Z,14.70
2018-04-29T03:27:15.307Z,14.20
2018-04-29T03:29:44.945Z,13.40
2018-04-29T03:32:14.308Z,15.50
2018-04-29T03:34:52.874Z,14.77
2018-04-29T03:37:35.202Z,13.70
2018-04-29T03:40:21.509Z,16.00
2018-04-29T03:42:54.214Z,16.70
2018-04-29T03:45:23.272Z,15.37
2018-04-29T03:47:52.168Z,17.17
2018-04-29T03:56:15.801Z,19.90
2018-04-29T03:59:05.649Z,15.60
2018-04-29T04:02:00.610Z,19.00
2018-04-29T04:04:31.627Z,15.77
2018-04-29T04:07:01.583Z,16.63
2018-04-29T04:12:35.609Z,13.70
2018-04-29T04:20:40.908Z,14.90
2018-04-29T04:23:08.849Z,17.30
2018-04-29T04:25:50.315Z,14.73
2018-04-29T04:33:04.309Z,14.87
2018-04-29T04:38:16.956Z,14.90
2018-04-29T04:40:45.665Z,11.40
2018-04-29T04:43:16.093Z,12.83
2018-04-29T04:45:50.468Z,14.00
2018-04-29T04:48:22.244Z,13.73
2018-04-29T04:53:45.806Z,15.80
2018-04-29T04:56:17.804Z,13.33
2018-04-29T04:58:51.811Z,15.80
2018-04-29T05:01:47.891Z,15.50
2018-04-29T05:11:41.728Z,12.27
2018-04-29T05:14:17.892Z,11.33
2018-04-29T05:19:32.460Z,11.70
2018-04-29T05:22:05.906Z,12.20
2018-04-29T05:27:55.477Z,12.10
2018-04-29T05:37:32.971Z,14.03
2018-04-29T05:45:57.344Z,12.90
2018-04-29T05:51:19.003Z,13.33
2018-04-29T05:54:01.407Z,14.27
2018-04-29T05:59:35.297Z,13.47
2018-04-29T06:02:22.539Z,12.37
2018-04-29T06:14:29.611Z,12.20
2018-04-29T06:20:08.921Z,11.53
2018-04-29T06:22:42.465Z,11.00
2018-04-29T06:25:33.122Z,11.40
2018-04-29T06:28:02.710Z,13.03
2018-04-29T06:30:44.811Z,11.20
2018-04-29T06:33:18.052Z,11.97
2018-04-29T06:35:52.442Z,11.10
2018-04-29T06:38:26.238Z,11.50
2018-04-29T06:41:18.683Z,11.20
2018-04-29T06:43:48.326Z,12.63
2018-04-29T06:46:25.428Z,12.70
2018-04-29T06:49:11.264Z,13.20
2018-04-29T06:51:42.220Z,11.47
2018-04-29T06:54:13.786Z,11.43
2018-04-29T07:02:43.281Z,10.80
2018-04-29T07:08:14.122Z,11.97
2018-04-29T07:10:57.639Z,10.60
2018-04-29T07:16:27.663Z,10.63
2018-04-29T07:35:38.365Z,9.30
2018-04-29T07:47:44.921Z,9.23
2018-04-29T07:56:21.467Z,7.63
2018-04-29T08:02:07.801Z,6.60
2018-04-29T08:04:39.407Z,6.40
2018-04-29T08:13:08.190Z,5.33
2018-04-29T08:15:46.896Z,4.87
2018-04-29T08:18:28.738Z,4.07
2018-04-29T08:21:09.116Z,3.63
2018-04-29T08:46:32.191Z,3.57
2018-04-29T09:58:03.446Z,4.33
2018-04-29T10:00:41.048Z,3.50
2018-04-29T10:03:12.322Z,4.23
2018-04-29T10:05:48.135Z,3.90
2018-04-29T10:08:38.080Z,4.27
2018-04-29T10:11:20.313Z,4.33
2018-04-29T10:13:50.219Z,3.70
2018-04-29T10:16:28.784Z,3.60
2018-04-29T10:19:12.081Z,4.17
2018-04-29T10:21:41.333Z,4.30
2018-04-29T10:26:49.652Z,4.00
2018-04-29T10:29:22.653Z,4.30
2018-04-29T10:31:53.593Z,3.93
2018-04-29T10:34:22.648Z,3.27
2018-04-29T10:36:51.123Z,3.90
2018-04-29T10:39:20.398Z,4.20
2018-04-29T10:45:56.557Z,4.10
2018-04-29T10:48:24.817Z,4.00
2018-04-29T10:50:53.465Z,4.30
2018-04-29T10:53:21.507Z,3.97
2018-04-29T10:55:51.902Z,5.50
2018-04-29T10:58:20.711Z,5.13
2018-04-29T11:00:48.749Z,4.23
2018-04-29T11:03:17.924Z,4.10
2018-04-29T11:05:47.129Z,4.50
2018-04-29T11:08:18.394Z,4.65
2018-04-29T11:10:46.656Z,4.60
2018-04-29T11:13:15.507Z,4.57
2018-04-29T11:15:44.349Z,5.20
2018-04-29T11:18:14.037Z,4.37
2018-04-29T11:20:42.080Z,4.53
2018-04-29T11:23:11.586Z,4.50
2018-04-29T11:25:40.540Z,5.80
2018-04-29T11:28:09.192Z,4.43
2018-04-29T11:30:36.941Z,4.20
2018-04-29T11:33:06.754Z,5.20
2018-04-29T11:35:35.596Z,4.83
2018-04-29T11:38:04.075Z,4.70
2018-04-29T11:40:31.745Z,4.47
2018-04-29T11:42:59.407Z,4.97
2018-04-29T11:45:27.141Z,4.50
2018-04-29T11:47:56.395Z,5.20
2018-04-29T11:50:24.362Z,5.23
2018-04-29T11:52:52.252Z,5.27
2018-04-29T11:55:20.646Z,5.50
2018-04-29T11:57:48.611Z,4.60
2018-04-29T12:00:18.443Z,5.27
2018-04-29T12:02:48.190Z,5.83
2018-04-29T12:05:15.883Z,5.23
2018-04-29T12:07:43.668Z,5.40
2018-04-29T12:10:12.627Z,5.00
2018-04-29T12:12:40.217Z,5.50
2018-04-29T12:15:09.858Z,5.53
2018-04-29T12:17:39.009Z,5.10
2018-04-29T12:20:07.247Z,5.40
2018-04-29T12:22:37.569Z,5.23
2018-04-29T12:25:07.314Z,4.80
2018-04-29T12:33:21.987Z,5.10
2018-04-29T12:35:50.811Z,4.67
2018-04-29T12:38:19.949Z,4.60
2018-04-29T12:40:47.728Z,5.30
2018-04-29T12:43:15.737Z,5.27
2018-04-29T12:45:44.376Z,5.33
2018-04-29T12:48:13.159Z,4.67
2018-04-29T12:50:42.387Z,5.10
2018-04-29T12:53:10.993Z,5.50
2018-04-29T12:55:39.663Z,5.30
2018-04-29T12:58:07.882Z,5.20
2018-04-29T13:00:36.165Z,5.70
2018-04-29T13:03:05.202Z,5.50
2018-04-29T13:05:33.136Z,5.30
2018-04-29T13:08:02.081Z,5.50
2018-04-29T13:10:30.812Z,5.20
2018-04-29T13:13:00.293Z,5.60
2018-04-29T13:15:28.859Z,4.77
2018-04-29T13:17:59.555Z,5.47
2018-04-29T13:20:29.883Z,4.63
2018-04-29T13:22:59.093Z,5.23
2018-04-29T13:25:27.165Z,5.83
2018-04-29T13:27:55.394Z,5.07
2018-04-29T13:30:23.073Z,5.10
2018-04-29T13:32:58.457Z,5.30
2018-04-29T13:35:27.161Z,4.80
2018-04-29T13:37:55.530Z,5.60
2018-04-29T13:40:24.461Z,5.67
2018-04-29T13:42:54.051Z,5.60
2018-04-29T13:45:26.024Z,5.60
2018-04-29T13:47:53.978Z,6.37
2018-04-29T13:50:23.768Z,5.27
2018-04-29T13:52:51.833Z,5.20
2018-04-29T13:55:20.470Z,5.20
2018-04-29T13:57:48.280Z,5.90
2018-04-29T14:00:16.791Z,5.87
2018-04-29T14:02:45.915Z,6.17
2018-04-29T14:05:14.726Z,5.40
2018-04-29T14:07:43.094Z,6.55
2018-04-29T14:10:12.215Z,6.80
2018-04-29T14:12:41.965Z,6.33
2018-04-29T14:15:10.051Z,6.20
2018-04-29T14:17:38.195Z,5.40
2018-04-29T14:20:08.244Z,6.37
2018-04-29T14:22:38.349Z,5.70
2018-04-29T14:25:06.013Z,5.53
2018-04-29T14:27:35.125Z,5.33
2018-04-29T14:30:04.056Z,6.40
2018-04-29T14:32:32.695Z,6.10
2018-04-29T14:35:02.027Z,5.63
2018-04-29T14:37:30.986Z,6.57
2018-04-29T14:39:59.675Z,5.77
2018-04-29T14:42:27.795Z,5.53
2018-04-29T14:44:57.091Z,6.03
2018-04-29T14:47:25.745Z,5.57
2018-04-29T14:49:53.691Z,6.03
2018-04-29T14:52:22.240Z,6.07
2018-04-29T14:54:50.599Z,5.37
2018-04-29T14:57:18.556Z,5.70
2018-04-29T14:59:47.550Z,5.10
2018-04-29T15:02:16.448Z,5.90
2018-04-29T15:04:45.557Z,6.87
2018-04-29T15:07:13.333Z,6.73
2018-04-29T15:09:41.328Z,5.87
2018-04-29T15:12:11.589Z,5.87
2018-04-29T15:14:40.092Z,5.60
2018-04-29T15:17:08.591Z,5.87
2018-04-29T15:19:48.214Z,5.53
2018-04-29T15:22:17.392Z,6.00
2018-04-29T15:24:45.482Z,6.07
2018-04-29T15:27:15.166Z,6.33
2018-04-29T15:29:44.789Z,6.20
2018-04-29T15:32:13.329Z,7.07
2018-04-29T15:34:41.416Z,7.10
2018-04-29T15:37:11.249Z,6.80
2018-04-29T15:39:39.900Z,6.93
2018-04-29T15:42:07.612Z,7.30
2018-04-29T15:44:36.274Z,6.60
2018-04-29T15:47:04.861Z,7.60
2018-04-29T15:49:33.904Z,7.17
2018-04-29T15:52:02.426Z,6.57
2018-04-29T15:54:31.075Z,7.80
2018-04-29T15:57:01.287Z,7.63
2018-04-29T15:59:29.549Z,6.83
2018-04-29T16:01:57.905Z,8.00
2018-04-29T16:04:27.664Z,7.40
2018-04-29T16:06:55.942Z,8.17
2018-04-29T16:09:25.748Z,7.73
2018-04-29T16:11:54.321Z,7.87
2018-04-29T16:14:23.588Z,8.00
2018-04-29T16:16:53.859Z,8.70
2018-04-29T16:19:23.263Z,7.87
2018-04-29T16:21:53.107Z,7.90
2018-04-29T16:24:22.858Z,9.80
2018-04-29T16:26:52.955Z,8.47
2018-04-29T16:29:21.099Z,8.43
2018-04-29T16:32:01.597Z,8.10
2018-04-29T16:34:31.902Z,8.43
2018-04-29T16:37:07.394Z,8.80
2018-04-29T16:39:37.446Z,8.33
2018-04-29T16:42:09.509Z,8.57
2018-04-29T16:44:40.548Z,8.50
2018-04-29T16:47:09.225Z,8.80
2018-04-29T16:49:38.171Z,9.80
2018-04-29T16:52:12.670Z,9.07
2018-04-29T16:54:50.801Z,8.23
2018-04-29T16:57:20.384Z,8.83
2018-04-29T16:59:49.330Z,9.00
2018-04-29T17:02:23.210Z,9.10
2018-04-29T17:07:28.752Z,9.20
2018-04-29T17:09:58.434Z,9.30
2018-04-29T17:12:26.335Z,10.10
2018-04-29T17:15:00.364Z,9.73
2018-04-29T17:17:28.855Z,9.57
2018-04-29T17:20:01.484Z,10.07
2018-04-29T17:22:39.241Z,10.90
2018-04-29T17:25:09.549Z,10.00
2018-04-29T17:27:44.439Z,9.57
2018-04-29T17:39:30.971Z,9.40
2018-04-29T17:51:08.636Z,10.30
2018-04-29T17:56:48.024Z,10.20
2018-04-29T18:26:26.145Z,13.50
2018-04-29T18:38:02.633Z,13.77
2018-04-29T18:40:33.750Z,13.33
2018-04-29T18:43:02.143Z,16.97
2018-04-29T18:45:31.513Z,18.47
2018-04-29T18:51:01.979Z,16.53
2018-04-29T18:53:46.766Z,16.90
2018-04-29T18:56:16.858Z,16.20
2018-04-29T18:58:49.840Z,15.23
2018-04-29T19:01:23.776Z,16.50
2018-04-29T19:06:53.374Z,18.40
2018-04-29T19:09:21.066Z,17.60
2018-04-29T19:11:49.300Z,18.10
2018-04-29T19:17:10.689Z,17.23
2018-04-29T19:19:38.460Z,16.07
2018-04-29T19:22:19.102Z,17.40
2018-04-29T19:24:48.747Z,18.20
2018-04-29T19:27:16.604Z,16.43
2018-04-29T19:29:44.407Z,19.53
2018-04-29T19:32:12.330Z,17.30
2018-04-29T19:34:59.446Z,18.63
2018-04-29T19:37:28.957Z,15.77
2018-04-29T19:39:56.745Z,19.40
2018-04-29T19:42:25.251Z,19.60
2018-04-29T19:45:06.611Z,18.87
2018-04-29T19:47:36.537Z,20.23
2018-04-29T19:50:05.388Z,20.20
2018-04-29T19:52:34.186Z,19.60
2018-04-29T19:55:02.034Z,20.43
2018-04-29T19:57:30.082Z,20.30
2018-04-29T19:59:58.008Z,18.40
2018-04-29T20:02:39.056Z,17.67
2018-04-29T20:05:09.299Z,18.27
2018-04-29T20:07:38.797Z,18.73
2018-04-29T20:10:06.951Z,17.90
2018-04-29T20:12:34.597Z,19.47
2018-04-29T20:15:07.098Z,16.27
2018-04-29T20:17:35.680Z,17.03
2018-04-29T20:20:06.085Z,15.70
2018-04-29T20:25:20.301Z,14.40
2018-04-29T20:27:48.047Z,14.53
2018-04-29T20:30:15.843Z,15.67
2018-04-29T20:32:57.463Z,15.63
2018-04-29T20:41:29.046Z,16.30
2018-04-29T20:49:20.100Z,13.60
2018-04-29T20:51:50.492Z,14.10
2018-04-29T20:54:20.849Z,14.80
2018-04-29T20:56:48.595Z,13.17
2018-04-29T20:59:19.901Z,13.40
2018-04-29T21:01:51.643Z,13.50
2018-04-29T21:04:21.708Z,13.00
2018-04-29T21:06:50.584Z,12.13
2018-04-29T21:09:19.356Z,12.70
2018-04-29T21:11:48.021Z,12.50
2018-04-29T21:14:19.371Z,11.60
2018-04-29T21:16:49.037Z,11.70
2018-04-29T21:19:18.249Z,11.10
2018-04-29T21:21:59.562Z,11.13
2018-04-29T21:24:29.513Z,11.40
2018-04-29T21:26:57.220Z,10.43
2018-04-29T21:29:30.664Z,11.80
2018-04-29T21:32:00.172Z,12.00
2018-04-29T21:39:59.828Z,11.87
2018-04-29T21:42:31.585Z,11.80
2018-04-29T21:47:44.035Z,10.37
2018-04-29T21:50:13.215Z,10.50
2018-04-29T21:55:23.855Z,10.03
2018-04-29T21:57:58.471Z,11.37
2018-04-29T22:00:27.409Z,10.73
2018-04-29T22:02:56.075Z,12.17
2018-04-29T22:05:24.731Z,10.33
2018-04-29T22:07:52.793Z,10.50
2018-04-29T22:10:21.269Z,11.90
2018-04-29T22:12:49.910Z,11.35
2018-04-29T22:18:15.628Z,10.83
2018-04-29T22:23:48.247Z,10.97
2018-04-29T22:26:16.115Z,11.20
2018-04-29T22:28:45.543Z,11.83
2018-04-29T22:31:13.395Z,10.90
2018-04-29T22:34:02.207Z,10.53
2018-04-29T22:42:21.211Z,8.20
2018-04-29T22:44:48.963Z,8.73
2018-04-29T22:47:19.054Z,8.60
2018-04-29T22:49:47.778Z,8.67
2018-04-29T22:52:17.505Z,9.40
2018-04-29T22:54:48.795Z,9.10
2018-04-29T22:57:17.040Z,9.40
2018-04-29T22:59:57.746Z,9.53
2018-04-29T23:02:31.204Z,8.77
2018-04-29T23:07:45.605Z,8.60
2018-04-29T23:13:18.616Z,8.87
2018-04-29T23:15:49.335Z,8.90
2018-04-29T23:18:18.895Z,8.90
2018-04-29T23:20:47.946Z,8.60
2018-04-29T23:23:19.773Z,7.70
2018-04-29T23:25:56.766Z,8.10
2018-04-29T23:28:26.036Z,8.75
2018-04-29T23:30:54.663Z,9.73
2018-04-29T23:33:24.456Z,8.73
2018-04-29T23:38:46.783Z,9.47
2018-04-29T23:41:17.898Z,8.13
2018-04-29T23:43:47.633Z,7.17
2018-04-29T23:46:17.344Z,8.70
2018-04-29T23:48:45.078Z,7.33
2018-04-29T23:51:13.556Z,8.55
2018-04-29T23:53:41.364Z,8.25
2018-04-29T23:56:10.038Z,8.70
2018-04-29T23:58:39.268Z,8.90
